LAN5LB SACO-SASJ
Flight info
| Callsign | LAN5LB |
|---|---|
| Flight time | 1h 19m |
| Altitude | 36000 |
| Route | DONKA1C DONKA UN525 TUC/N0456F350 UT675 ILPAR ILPAR2U |
| Aircraft | A321/M-SDE3FGHIRWY/LB1 |
Departure
| Time | 2026-05-08 17:00 |
|---|---|
| Airport | Ingeniero Aeronáutico Ambrosio L.V. Taravella International Airport (SACO) |
Arrival
| Time | 2026-05-08 18:19 |
|---|---|
| Airport | Gobernador Horacio Guzman International Airport (SASJ) |
| Time | Latitude | Longitude | Altitude | Speed | Heading |
|---|---|---|---|---|---|
| 2026-05-08 16:46 | -31.31612 | -64.21166 | 1613 ft | 0 kts | 268° |
| 2026-05-08 16:53 | -31.31611 | -64.21150 | 1613 ft | 4 kts | 264° |
| 2026-05-08 16:54 | -31.31606 | -64.21120 | 1617 ft | 4 kts | 241° |
| 2026-05-08 16:54 | -31.31590 | -64.21102 | 1621 ft | 3 kts | 185° |
| 2026-05-08 16:54 | -31.31586 | -64.21101 | 1619 ft | 0 kts | 180° |
| 2026-05-08 16:56 | -31.31590 | -64.21101 | 1621 ft | 3 kts | 180° |
| 2026-05-08 16:56 | -31.31633 | -64.21102 | 1620 ft | 10 kts | 180° |
| 2026-05-08 16:56 | -31.31708 | -64.21099 | 1619 ft | 11 kts | 168° |
| 2026-05-08 16:57 | -31.31774 | -64.21044 | 1615 ft | 12 kts | 146° |
| 2026-05-08 16:57 | -31.31866 | -64.21028 | 1619 ft | 14 kts | 179° |
| 2026-05-08 16:57 | -31.31979 | -64.21027 | 1617 ft | 18 kts | 179° |
| 2026-05-08 16:57 | -31.32105 | -64.21025 | 1617 ft | 18 kts | 179° |
| 2026-05-08 16:58 | -31.32234 | -64.21024 | 1616 ft | 19 kts | 179° |
| 2026-05-08 16:58 | -31.32358 | -64.21020 | 1618 ft | 16 kts | 176° |
| 2026-05-08 16:58 | -31.32429 | -64.20960 | 1621 ft | 13 kts | 113° |
| 2026-05-08 16:58 | -31.32433 | -64.20852 | 1614 ft | 11 kts | 86° |
| 2026-05-08 16:59 | -31.32422 | -64.20813 | 1618 ft | 4 kts | 21° |
| 2026-05-08 16:59 | -31.32391 | -64.20814 | 1617 ft | 6 kts | 358° |
| 2026-05-08 16:59 | -31.32175 | -64.20815 | 1617 ft | 66 kts | 360° |
| 2026-05-08 16:59 | -31.31497 | -64.20830 | 1620 ft | 127 kts | 359° |
| 2026-05-08 17:00 | -31.30446 | -64.20842 | 1716 ft | 165 kts | 1° |
| 2026-05-08 17:00 | -31.29322 | -64.20863 | 2477 ft | 161 kts | 2° |
| 2026-05-08 17:00 | -31.28187 | -64.20881 | 3069 ft | 168 kts | 3° |
| 2026-05-08 17:00 | -31.26937 | -64.20894 | 3326 ft | 191 kts | 2° |
| 2026-05-08 17:01 | -31.25554 | -64.20910 | 3554 ft | 212 kts | 2° |
| 2026-05-08 17:01 | -31.23998 | -64.20933 | 3708 ft | 236 kts | 2° |
| 2026-05-08 17:01 | -31.22289 | -64.20958 | 4177 ft | 250 kts | 360° |
| 2026-05-08 17:01 | -31.20524 | -64.21010 | 4899 ft | 257 kts | 354° |
| 2026-05-08 17:02 | -31.18857 | -64.21703 | 5603 ft | 260 kts | 325° |
| 2026-05-08 17:02 | -31.17404 | -64.22998 | 6290 ft | 265 kts | 320° |
| 2026-05-08 17:02 | -31.15953 | -64.24351 | 6961 ft | 269 kts | 319° |
| 2026-05-08 17:02 | -31.14482 | -64.25730 | 7636 ft | 273 kts | 318° |
| 2026-05-08 17:03 | -31.12986 | -64.27129 | 8336 ft | 277 kts | 318° |
| 2026-05-08 17:03 | -31.11493 | -64.28515 | 9030 ft | 280 kts | 317° |
| 2026-05-08 17:03 | -31.09954 | -64.29937 | 9727 ft | 283 kts | 317° |
| 2026-05-08 17:03 | -31.08393 | -64.31380 | 10267 ft | 293 kts | 317° |
| 2026-05-08 17:04 | -31.06740 | -64.32916 | 10402 ft | 315 kts | 317° |
| 2026-05-08 17:04 | -31.04967 | -64.34560 | 10535 ft | 336 kts | 317° |
| 2026-05-08 17:04 | -31.02995 | -64.36173 | 10678 ft | 357 kts | 327° |
| 2026-05-08 17:04 | -31.00669 | -64.37338 | 11115 ft | 371 kts | 339° |
| 2026-05-08 17:05 | -30.98111 | -64.37937 | 11717 ft | 380 kts | 351° |
| 2026-05-08 17:05 | -30.95488 | -64.38038 | 12365 ft | 384 kts | 355° |
| 2026-05-08 17:05 | -30.92812 | -64.38097 | 13035 ft | 385 kts | 355° |
| 2026-05-08 17:05 | -30.90125 | -64.38164 | 13708 ft | 387 kts | 355° |
| 2026-05-08 17:06 | -30.87422 | -64.38235 | 14276 ft | 390 kts | 354° |
| 2026-05-08 17:06 | -30.84694 | -64.38307 | 14794 ft | 394 kts | 354° |
| 2026-05-08 17:06 | -30.81942 | -64.38378 | 15302 ft | 398 kts | 354° |
| 2026-05-08 17:06 | -30.79149 | -64.38445 | 15799 ft | 403 kts | 353° |
| 2026-05-08 17:07 | -30.76328 | -64.38509 | 16297 ft | 408 kts | 353° |
| 2026-05-08 17:07 | -30.73514 | -64.38573 | 16814 ft | 412 kts | 352° |
| 2026-05-08 17:07 | -30.70638 | -64.38638 | 17359 ft | 416 kts | 352° |
| 2026-05-08 17:07 | -30.67733 | -64.38704 | 17868 ft | 420 kts | 352° |
| 2026-05-08 17:08 | -30.64797 | -64.38772 | 18357 ft | 424 kts | 352° |
| 2026-05-08 17:08 | -30.61836 | -64.38844 | 18785 ft | 428 kts | 352° |
| 2026-05-08 17:08 | -30.58848 | -64.38919 | 19221 ft | 431 kts | 352° |
| 2026-05-08 17:08 | -30.55836 | -64.38992 | 19648 ft | 435 kts | 352° |
| 2026-05-08 17:09 | -30.52800 | -64.39063 | 20057 ft | 438 kts | 351° |
| 2026-05-08 17:09 | -30.49740 | -64.39135 | 20439 ft | 442 kts | 351° |
| 2026-05-08 17:09 | -30.46654 | -64.39207 | 20812 ft | 446 kts | 351° |
| 2026-05-08 17:09 | -30.43583 | -64.39279 | 21187 ft | 449 kts | 351° |
| 2026-05-08 17:10 | -30.42739 | -64.39299 | 21283 ft | 450 kts | 351° |
| 2026-05-08 17:10 | -30.39638 | -64.39610 | 21665 ft | 445 kts | 342° |
| 2026-05-08 17:10 | -30.36594 | -64.40257 | 22046 ft | 446 kts | 341° |
| 2026-05-08 17:10 | -30.33532 | -64.40918 | 22419 ft | 449 kts | 341° |
| 2026-05-08 17:11 | -30.30447 | -64.41582 | 22803 ft | 453 kts | 341° |
| 2026-05-08 17:11 | -30.27340 | -64.42250 | 23171 ft | 456 kts | 341° |
| 2026-05-08 17:11 | -30.24211 | -64.42921 | 23487 ft | 459 kts | 339° |
| 2026-05-08 17:11 | -30.21105 | -64.43584 | 23847 ft | 461 kts | 339° |
| 2026-05-08 17:12 | -30.17945 | -64.44257 | 24205 ft | 463 kts | 339° |
| 2026-05-08 17:12 | -30.14772 | -64.44934 | 24565 ft | 465 kts | 339° |
| 2026-05-08 17:12 | -30.11588 | -64.45613 | 24919 ft | 466 kts | 339° |
| 2026-05-08 17:12 | -30.08385 | -64.46293 | 25271 ft | 468 kts | 339° |
| 2026-05-08 17:13 | -30.05177 | -64.46971 | 25615 ft | 470 kts | 339° |
| 2026-05-08 17:13 | -30.01957 | -64.47650 | 25944 ft | 471 kts | 338° |
| 2026-05-08 17:13 | -29.98728 | -64.48335 | 26239 ft | 472 kts | 338° |
| 2026-05-08 17:13 | -29.95535 | -64.49017 | 26579 ft | 474 kts | 338° |
| 2026-05-08 17:14 | -29.92287 | -64.49704 | 26920 ft | 476 kts | 338° |
| 2026-05-08 17:14 | -29.89014 | -64.50354 | 27249 ft | 479 kts | 339° |
| 2026-05-08 17:14 | -29.85719 | -64.50975 | 27569 ft | 481 kts | 339° |
| 2026-05-08 17:14 | -29.82409 | -64.51581 | 27918 ft | 482 kts | 339° |
| 2026-05-08 17:15 | -29.79107 | -64.52183 | 28366 ft | 480 kts | 339° |
| 2026-05-08 17:15 | -29.75811 | -64.52786 | 28733 ft | 478 kts | 339° |
| 2026-05-08 17:15 | -29.72541 | -64.53392 | 29171 ft | 476 kts | 338° |
| 2026-05-08 17:15 | -29.69323 | -64.53999 | 29604 ft | 474 kts | 338° |
| 2026-05-08 17:16 | -29.66068 | -64.54616 | 30047 ft | 472 kts | 338° |
| 2026-05-08 17:16 | -29.62830 | -64.55232 | 30399 ft | 471 kts | 338° |
| 2026-05-08 17:16 | -29.59593 | -64.55849 | 30698 ft | 472 kts | 338° |
| 2026-05-08 17:16 | -29.56361 | -64.56498 | 30963 ft | 471 kts | 336° |
| 2026-05-08 17:17 | -29.53139 | -64.57193 | 31235 ft | 471 kts | 336° |
| 2026-05-08 17:17 | -29.49922 | -64.57917 | 31444 ft | 471 kts | 336° |
| 2026-05-08 17:17 | -29.46706 | -64.58645 | 31758 ft | 471 kts | 336° |
| 2026-05-08 17:17 | -29.43491 | -64.59372 | 32044 ft | 471 kts | 336° |
| 2026-05-08 17:18 | -29.40313 | -64.60087 | 32311 ft | 472 kts | 336° |
| 2026-05-08 17:18 | -29.37082 | -64.60803 | 32566 ft | 474 kts | 336° |
| 2026-05-08 17:18 | -29.33840 | -64.61509 | 32819 ft | 475 kts | 336° |
| 2026-05-08 17:18 | -29.30588 | -64.62209 | 33068 ft | 476 kts | 336° |
| 2026-05-08 17:19 | -29.27330 | -64.62911 | 33326 ft | 477 kts | 336° |
| 2026-05-08 17:19 | -29.24068 | -64.63614 | 33525 ft | 477 kts | 336° |
| 2026-05-08 17:19 | -29.20808 | -64.64315 | 33815 ft | 477 kts | 336° |
| 2026-05-08 17:19 | -29.17548 | -64.65020 | 34078 ft | 477 kts | 336° |
| 2026-05-08 17:20 | -29.14281 | -64.65731 | 34311 ft | 477 kts | 336° |
| 2026-05-08 17:20 | -29.11063 | -64.66432 | 34528 ft | 477 kts | 336° |
| 2026-05-08 17:20 | -29.07803 | -64.67141 | 34770 ft | 477 kts | 336° |
| 2026-05-08 17:20 | -29.04543 | -64.67848 | 34995 ft | 477 kts | 336° |
| 2026-05-08 17:21 | -29.01285 | -64.68555 | 35230 ft | 477 kts | 336° |
| 2026-05-08 17:21 | -28.98033 | -64.69260 | 35417 ft | 475 kts | 337° |
| 2026-05-08 17:21 | -28.94792 | -64.69962 | 35707 ft | 473 kts | 337° |
| 2026-05-08 17:21 | -28.91558 | -64.70661 | 35943 ft | 473 kts | 337° |
| 2026-05-08 17:22 | -28.85122 | -64.72051 | 36045 ft | 474 kts | 337° |
| 2026-05-08 17:22 | -28.78638 | -64.73450 | 36044 ft | 474 kts | 337° |
| 2026-05-08 17:23 | -28.72151 | -64.74839 | 36041 ft | 474 kts | 337° |
| 2026-05-08 17:23 | -28.65657 | -64.76228 | 36038 ft | 474 kts | 337° |
| 2026-05-08 17:24 | -28.59202 | -64.77573 | 36045 ft | 476 kts | 338° |
| 2026-05-08 17:24 | -28.52654 | -64.78792 | 36048 ft | 478 kts | 339° |
| 2026-05-08 17:25 | -28.46092 | -64.79968 | 36018 ft | 477 kts | 339° |
| 2026-05-08 17:25 | -28.39549 | -64.81164 | 36047 ft | 476 kts | 339° |
| 2026-05-08 17:26 | -28.33016 | -64.82395 | 36056 ft | 476 kts | 338° |
| 2026-05-08 17:26 | -28.26527 | -64.83616 | 36060 ft | 476 kts | 339° |
| 2026-05-08 17:27 | -28.20002 | -64.84828 | 36027 ft | 475 kts | 339° |
| 2026-05-08 17:27 | -28.13481 | -64.86032 | 36048 ft | 475 kts | 339° |
| 2026-05-08 17:28 | -28.06954 | -64.87235 | 36051 ft | 475 kts | 339° |
| 2026-05-08 17:28 | -28.00478 | -64.88429 | 36054 ft | 475 kts | 339° |
| 2026-05-08 17:29 | -27.93962 | -64.89637 | 36031 ft | 475 kts | 338° |
| 2026-05-08 17:29 | -27.87443 | -64.90848 | 36043 ft | 475 kts | 339° |
| 2026-05-08 17:30 | -27.80920 | -64.92055 | 36045 ft | 475 kts | 339° |
| 2026-05-08 17:30 | -27.74394 | -64.93254 | 36055 ft | 475 kts | 338° |
| 2026-05-08 17:31 | -27.67928 | -64.94495 | 36015 ft | 474 kts | 338° |
| 2026-05-08 17:31 | -27.61426 | -64.95797 | 36046 ft | 474 kts | 338° |
| 2026-05-08 17:32 | -27.54931 | -64.97103 | 36071 ft | 474 kts | 338° |
| 2026-05-08 17:32 | -27.48426 | -64.98387 | 36062 ft | 475 kts | 338° |
| 2026-05-08 17:33 | -27.41953 | -64.99654 | 35998 ft | 476 kts | 339° |
| 2026-05-08 17:33 | -27.35420 | -65.00928 | 36018 ft | 477 kts | 339° |
| 2026-05-08 17:34 | -27.28877 | -65.02199 | 36024 ft | 477 kts | 339° |
| 2026-05-08 17:34 | -27.22339 | -65.03482 | 36027 ft | 477 kts | 339° |
| 2026-05-08 17:35 | -27.15849 | -65.04762 | 36002 ft | 476 kts | 339° |
| 2026-05-08 17:35 | -27.09320 | -65.06038 | 36037 ft | 476 kts | 339° |
| 2026-05-08 17:36 | -27.02796 | -65.07303 | 36060 ft | 476 kts | 339° |
| 2026-05-08 17:36 | -26.96275 | -65.08566 | 36068 ft | 476 kts | 339° |
| 2026-05-08 17:37 | -26.89763 | -65.09831 | 36035 ft | 474 kts | 340° |
| 2026-05-08 17:37 | -26.83249 | -65.10823 | 36056 ft | 485 kts | 350° |
| 2026-05-08 17:38 | -26.76459 | -65.10740 | 36071 ft | 488 kts | 351° |
| 2026-05-08 17:38 | -26.69667 | -65.10634 | 36016 ft | 488 kts | 351° |
| 2026-05-08 17:39 | -26.62879 | -65.10528 | 35975 ft | 487 kts | 351° |
| 2026-05-08 17:39 | -26.56147 | -65.10434 | 36001 ft | 487 kts | 351° |
| 2026-05-08 17:40 | -26.49365 | -65.10349 | 36005 ft | 487 kts | 351° |
| 2026-05-08 17:40 | -26.42593 | -65.10260 | 35971 ft | 485 kts | 351° |
| 2026-05-08 17:41 | -26.35898 | -65.10168 | 35956 ft | 485 kts | 352° |
| 2026-05-08 17:41 | -26.29155 | -65.10068 | 36013 ft | 485 kts | 352° |
| 2026-05-08 17:42 | -26.22413 | -65.09967 | 36026 ft | 484 kts | 352° |
| 2026-05-08 17:42 | -26.15678 | -65.09868 | 36027 ft | 484 kts | 352° |
| 2026-05-08 17:43 | -26.08995 | -65.09781 | 36036 ft | 483 kts | 352° |
| 2026-05-08 17:43 | -26.02273 | -65.09697 | 36040 ft | 483 kts | 352° |
| 2026-05-08 17:44 | -25.95553 | -65.09601 | 36039 ft | 483 kts | 352° |
| 2026-05-08 17:44 | -25.88835 | -65.09507 | 36039 ft | 483 kts | 352° |
| 2026-05-08 17:45 | -25.82116 | -65.09413 | 36026 ft | 483 kts | 352° |
| 2026-05-08 17:45 | -25.75454 | -65.09327 | 36039 ft | 481 kts | 352° |
| 2026-05-08 17:46 | -25.68738 | -65.08744 | 36051 ft | 494 kts | 6° |
| 2026-05-08 17:46 | -25.62110 | -65.06516 | 36049 ft | 499 kts | 11° |
| 2026-05-08 17:47 | -25.55496 | -65.04196 | 36047 ft | 499 kts | 10° |
| 2026-05-08 17:47 | -25.49989 | -65.02279 | 36027 ft | 499 kts | 10° |
| 2026-05-08 17:48 | -25.42312 | -64.99610 | 36057 ft | 497 kts | 10° |
| 2026-05-08 17:48 | -25.35724 | -64.97322 | 36065 ft | 495 kts | 10° |
| 2026-05-08 17:49 | -25.29158 | -64.95043 | 36062 ft | 494 kts | 10° |
| 2026-05-08 17:49 | -25.22649 | -64.92783 | 36066 ft | 493 kts | 10° |
| 2026-05-08 17:50 | -25.16113 | -64.90636 | 36057 ft | 484 kts | 3° |
| 2026-05-08 17:50 | -25.12821 | -64.90168 | 36063 ft | 472 kts | 354° |
| 2026-05-08 17:50 | -25.09584 | -64.90267 | 36061 ft | 460 kts | 345° |
| 2026-05-08 17:51 | -25.03542 | -64.91980 | 36061 ft | 440 kts | 328° |
| 2026-05-08 17:51 | -24.98273 | -64.95114 | 36058 ft | 432 kts | 322° |
| 2026-05-08 17:52 | -24.93066 | -64.98408 | 36027 ft | 431 kts | 323° |
| 2026-05-08 17:53 | -24.85255 | -65.03315 | 36050 ft | 431 kts | 323° |
| 2026-05-08 17:53 | -24.80055 | -65.06575 | 36051 ft | 430 kts | 323° |
| 2026-05-08 17:54 | -24.74898 | -65.09815 | 36044 ft | 429 kts | 323° |
| 2026-05-08 17:54 | -24.69713 | -65.13075 | 36047 ft | 429 kts | 323° |
| 2026-05-08 17:55 | -24.64533 | -65.16330 | 36028 ft | 428 kts | 323° |
| 2026-05-08 17:55 | -24.59360 | -65.19572 | 36037 ft | 428 kts | 323° |
| 2026-05-08 17:56 | -24.54226 | -65.22784 | 36046 ft | 427 kts | 323° |
| 2026-05-08 17:56 | -24.49066 | -65.26014 | 36049 ft | 427 kts | 323° |
| 2026-05-08 17:57 | -24.43900 | -65.29237 | 35915 ft | 428 kts | 325° |
| 2026-05-08 17:57 | -24.41057 | -65.30434 | 34881 ft | 451 kts | 342° |
| 2026-05-08 17:57 | -24.37858 | -65.30710 | 33834 ft | 474 kts | 359° |
| 2026-05-08 17:57 | -24.34602 | -65.29988 | 32748 ft | 495 kts | 15° |
| 2026-05-08 17:58 | -24.31480 | -65.28271 | 31720 ft | 513 kts | 31° |
| 2026-05-08 17:58 | -24.28770 | -65.25647 | 30717 ft | 527 kts | 47° |
| 2026-05-08 17:58 | -24.26702 | -65.22299 | 29654 ft | 536 kts | 63° |
| 2026-05-08 17:58 | -24.25431 | -65.18449 | 28506 ft | 540 kts | 78° |
| 2026-05-08 17:59 | -24.25057 | -65.14362 | 27391 ft | 540 kts | 94° |
| 2026-05-08 17:59 | -24.25605 | -65.10327 | 26345 ft | 534 kts | 110° |
| 2026-05-08 17:59 | -24.27027 | -65.06619 | 25348 ft | 524 kts | 126° |
| 2026-05-08 17:59 | -24.29170 | -65.03529 | 24415 ft | 511 kts | 141° |
| 2026-05-08 18:00 | -24.31930 | -65.01170 | 23501 ft | 496 kts | 156° |
| 2026-05-08 18:00 | -24.38298 | -64.99332 | 21608 ft | 463 kts | 187° |
| 2026-05-08 18:00 | -24.41399 | -64.99930 | 20848 ft | 445 kts | 203° |
| 2026-05-08 18:01 | -24.44074 | -65.01453 | 20289 ft | 426 kts | 219° |
| 2026-05-08 18:01 | -24.46115 | -65.03713 | 19774 ft | 412 kts | 236° |
| 2026-05-08 18:01 | -24.47360 | -65.06487 | 19248 ft | 402 kts | 253° |
| 2026-05-08 18:01 | -24.47740 | -65.09455 | 18693 ft | 397 kts | 266° |
| 2026-05-08 18:02 | -24.47768 | -65.12463 | 18138 ft | 391 kts | 268° |
| 2026-05-08 18:02 | -24.47772 | -65.14471 | 17722 ft | 388 kts | 268° |
| 2026-05-08 18:02 | -24.48043 | -65.18337 | 16922 ft | 381 kts | 254° |
| 2026-05-08 18:02 | -24.49144 | -65.20955 | 16294 ft | 380 kts | 236° |
| 2026-05-08 18:03 | -24.51004 | -65.23010 | 15654 ft | 384 kts | 217° |
| 2026-05-08 18:03 | -24.53421 | -65.24269 | 15019 ft | 390 kts | 198° |
| 2026-05-08 18:03 | -24.56129 | -65.24576 | 14383 ft | 397 kts | 179° |
| 2026-05-08 18:03 | -24.58823 | -65.23877 | 13730 ft | 403 kts | 159° |
| 2026-05-08 18:04 | -24.61165 | -65.22264 | 13023 ft | 406 kts | 139° |
| 2026-05-08 18:04 | -24.62935 | -65.19861 | 12420 ft | 405 kts | 118° |
| 2026-05-08 18:04 | -24.63857 | -65.16998 | 12056 ft | 394 kts | 98° |
| 2026-05-08 18:04 | -24.63863 | -65.14053 | 11693 ft | 381 kts | 78° |
| 2026-05-08 18:05 | -24.62984 | -65.11381 | 11334 ft | 367 kts | 57° |
| 2026-05-08 18:05 | -24.61365 | -65.09307 | 10977 ft | 352 kts | 36° |
| 2026-05-08 18:05 | -24.59250 | -65.08110 | 10791 ft | 334 kts | 13° |
| 2026-05-08 18:05 | -24.57006 | -65.07927 | 10669 ft | 318 kts | 351° |
| 2026-05-08 18:06 | -24.54982 | -65.08724 | 10558 ft | 305 kts | 327° |
| 2026-05-08 18:06 | -24.53525 | -65.10298 | 10455 ft | 296 kts | 303° |
| 2026-05-08 18:06 | -24.52704 | -65.12324 | 10297 ft | 286 kts | 291° |
| 2026-05-08 18:06 | -24.52068 | -65.14356 | 10191 ft | 277 kts | 290° |
| 2026-05-08 18:07 | -24.51481 | -65.16324 | 10069 ft | 266 kts | 291° |
| 2026-05-08 18:07 | -24.50938 | -65.18229 | 9947 ft | 258 kts | 290° |
| 2026-05-08 18:07 | -24.50411 | -65.20096 | 9691 ft | 255 kts | 290° |
| 2026-05-08 18:07 | -24.49897 | -65.21955 | 9376 ft | 254 kts | 290° |
| 2026-05-08 18:08 | -24.49372 | -65.23802 | 9038 ft | 252 kts | 291° |
| 2026-05-08 18:08 | -24.48612 | -65.25486 | 8717 ft | 248 kts | 309° |
| 2026-05-08 18:08 | -24.47466 | -65.26868 | 8401 ft | 244 kts | 323° |
| 2026-05-08 18:08 | -24.46064 | -65.27870 | 8207 ft | 240 kts | 333° |
| 2026-05-08 18:09 | -24.44600 | -65.28769 | 8205 ft | 242 kts | 333° |
| 2026-05-08 18:09 | -24.43137 | -65.29681 | 8210 ft | 243 kts | 333° |
| 2026-05-08 18:09 | -24.41657 | -65.30610 | 8209 ft | 248 kts | 330° |
| 2026-05-08 18:09 | -24.40150 | -65.31558 | 8209 ft | 251 kts | 330° |
| 2026-05-08 18:10 | -24.38633 | -65.32514 | 8206 ft | 251 kts | 330° |
| 2026-05-08 18:10 | -24.37135 | -65.33455 | 8243 ft | 243 kts | 330° |
| 2026-05-08 18:10 | -24.35633 | -65.34223 | 8209 ft | 240 kts | 342° |
| 2026-05-08 18:10 | -24.34029 | -65.34738 | 8211 ft | 240 kts | 344° |
| 2026-05-08 18:11 | -24.32425 | -65.35247 | 8210 ft | 240 kts | 344° |
| 2026-05-08 18:11 | -24.30823 | -65.35758 | 8212 ft | 240 kts | 344° |
| 2026-05-08 18:11 | -24.29219 | -65.36271 | 8189 ft | 240 kts | 344° |
| 2026-05-08 18:11 | -24.27615 | -65.36783 | 8191 ft | 240 kts | 344° |
| 2026-05-08 18:12 | -24.26009 | -65.37293 | 8183 ft | 240 kts | 344° |
| 2026-05-08 18:12 | -24.24386 | -65.37713 | 8174 ft | 240 kts | 354° |
| 2026-05-08 18:12 | -24.22721 | -65.37645 | 8186 ft | 240 kts | 12° |
| 2026-05-08 18:12 | -24.21198 | -65.36994 | 8185 ft | 240 kts | 32° |
| 2026-05-08 18:13 | -24.19975 | -65.35769 | 8210 ft | 240 kts | 54° |
| 2026-05-08 18:13 | -24.19250 | -65.34129 | 8215 ft | 240 kts | 75° |
| 2026-05-08 18:13 | -24.18894 | -65.32343 | 8218 ft | 241 kts | 81° |
| 2026-05-08 18:13 | -24.18867 | -65.30516 | 8211 ft | 241 kts | 98° |
| 2026-05-08 18:14 | -24.19344 | -65.28759 | 8190 ft | 243 kts | 110° |
| 2026-05-08 18:14 | -24.20170 | -65.27127 | 7830 ft | 244 kts | 117° |
| 2026-05-08 18:14 | -24.21010 | -65.25530 | 7494 ft | 241 kts | 115° |
| 2026-05-08 18:14 | -24.21821 | -65.23983 | 7209 ft | 232 kts | 116° |
| 2026-05-08 18:15 | -24.22687 | -65.22548 | 6902 ft | 223 kts | 126° |
| 2026-05-08 18:15 | -24.23668 | -65.21282 | 6604 ft | 213 kts | 127° |
| 2026-05-08 18:15 | -24.24602 | -65.20071 | 6327 ft | 203 kts | 125° |
| 2026-05-08 18:15 | -24.25493 | -65.18910 | 6054 ft | 195 kts | 125° |
| 2026-05-08 18:16 | -24.26426 | -65.17867 | 5792 ft | 191 kts | 140° |
| 2026-05-08 18:16 | -24.27557 | -65.17137 | 5556 ft | 186 kts | 146° |
| 2026-05-08 18:16 | -24.28670 | -65.16447 | 5317 ft | 182 kts | 147° |
| 2026-05-08 18:16 | -24.29765 | -65.15760 | 5081 ft | 181 kts | 146° |
| 2026-05-08 18:17 | -24.30853 | -65.15076 | 4851 ft | 180 kts | 144° |
| 2026-05-08 18:17 | -24.31898 | -65.14423 | 4620 ft | 170 kts | 144° |
| 2026-05-08 18:17 | -24.32909 | -65.13791 | 4347 ft | 164 kts | 146° |
| 2026-05-08 18:17 | -24.33897 | -65.13174 | 4098 ft | 162 kts | 144° |
| 2026-05-08 18:18 | -24.34877 | -65.12560 | 3844 ft | 162 kts | 145° |
| 2026-05-08 18:18 | -24.35850 | -65.11949 | 3591 ft | 160 kts | 147° |
| 2026-05-08 18:18 | -24.36792 | -65.11351 | 3358 ft | 155 kts | 146° |
| 2026-05-08 18:18 | -24.37711 | -65.10749 | 3118 ft | 150 kts | 143° |
| 2026-05-08 18:19 | -24.38586 | -65.10213 | 3000 ft | 132 kts | 145° |
| 2026-05-08 18:19 | -24.39161 | -65.09846 | 3000 ft | 54 kts | 150° |
| 2026-05-08 18:19 | -24.39298 | -65.09775 | 2999 ft | 9 kts | 163° |
| 2026-05-08 18:19 | -24.39307 | -65.09752 | 2999 ft | 2 kts | 17° |
| 2026-05-08 18:20 | -24.39279 | -65.09771 | 2999 ft | 8 kts | 330° |
| 2026-05-08 18:20 | -24.39218 | -65.09809 | 2999 ft | 11 kts | 332° |
| 2026-05-08 18:20 | -24.39143 | -65.09846 | 3000 ft | 12 kts | 341° |
| 2026-05-08 18:20 | -24.39057 | -65.09853 | 3000 ft | 13 kts | 0° |
| 2026-05-08 18:21 | -24.38960 | -65.09851 | 2999 ft | 15 kts | 11° |
| 2026-05-08 18:21 | -24.38896 | -65.09764 | 2998 ft | 16 kts | 60° |
| 2026-05-08 18:21 | -24.38840 | -65.09659 | 2998 ft | 17 kts | 60° |
| 2026-05-08 18:21 | -24.38781 | -65.09547 | 2997 ft | 17 kts | 60° |
| 2026-05-08 18:22 | -24.38736 | -65.09478 | 2997 ft | 8 kts | 28° |
| 2026-05-08 18:22 | -24.38679 | -65.09494 | 2997 ft | 8 kts | 331° |
| 2026-05-08 18:22 | -24.38662 | -65.09504 | 2997 ft | 3 kts | 330° |
| 2026-05-08 18:22 | -24.38644 | -65.09500 | 2997 ft | 3 kts | 42° |
| 2026-05-08 18:23 | -24.38631 | -65.09477 | 2997 ft | 3 kts | 59° |
| 2026-05-08 18:23 | -24.38625 | -65.09466 | 2997 ft | 0 kts | 59° |